sensor_id;sensor_type;location;lat;lon;timestamp;pressure;altitude;pressure_sealevel;temperature;humidity
74633;BME280;63139;52.018;8.552;2024-03-17T00:00:28;101318.03;;;4.75;100.00
74633;BME280;63139;52.018;8.552;2024-03-17T00:02:55;101316.41;;;4.74;100.00
74633;BME280;63139;52.018;8.552;2024-03-17T00:05:22;101309.69;;;4.70;100.00
74633;BME280;63139;52.018;8.552;2024-03-17T00:07:49;101316.22;;;4.64;100.00
74633;BME280;63139;52.018;8.552;2024-03-17T00:10:16;101326.06;;;4.61;100.00
74633;BME280;63139;52.018;8.552;2024-03-17T00:12:42;101318.53;;;4.56;100.00
74633;BME280;63139;52.018;8.552;2024-03-17T00:15:09;101324.94;;;4.52;100.00
74633;BME280;63139;52.018;8.552;2024-03-17T00:17:36;101329.78;;;4.46;100.00
74633;BME280;63139;52.018;8.552;2024-03-17T00:20:04;101328.41;;;4.40;100.00
74633;BME280;63139;52.018;8.552;2024-03-17T00:22:35;101321.00;;;4.34;100.00
74633;BME280;63139;52.018;8.552;2024-03-17T00:25:07;101326.44;;;4.31;100.00
74633;BME280;63139;52.018;8.552;2024-03-17T00:27:34;101328.44;;;4.27;100.00
74633;BME280;63139;52.018;8.552;2024-03-17T00:30:06;101326.88;;;4.25;100.00
74633;BME280;63139;52.018;8.552;2024-03-17T00:32:36;101321.63;;;4.25;100.00
74633;BME280;63139;52.018;8.552;2024-03-17T00:35:04;101319.09;;;4.23;100.00
74633;BME280;63139;52.018;8.552;2024-03-17T00:37:31;101325.19;;;4.24;100.00
74633;BME280;63139;52.018;8.552;2024-03-17T00:39:58;101326.78;;;4.26;100.00
74633;BME280;63139;52.018;8.552;2024-03-17T00:42:25;101318.81;;;4.28;100.00
74633;BME280;63139;52.018;8.552;2024-03-17T00:44:52;101315.75;;;4.34;100.00
74633;BME280;63139;52.018;8.552;2024-03-17T00:47:18;101322.44;;;4.38;100.00
74633;BME280;63139;52.018;8.552;2024-03-17T00:49:45;101308.50;;;4.38;100.00
74633;BME280;63139;52.018;8.552;2024-03-17T00:52:11;101309.34;;;4.38;100.00
74633;BME280;63139;52.018;8.552;2024-03-17T00:54:38;101310.50;;;4.34;100.00
74633;BME280;63139;52.018;8.552;2024-03-17T00:57:04;101311.66;;;4.30;100.00
74633;BME280;63139;52.018;8.552;2024-03-17T00:59:32;101308.44;;;4.26;100.00
74633;BME280;63139;52.018;8.552;2024-03-17T01:01:58;101308.75;;;4.22;100.00
74633;BME280;63139;52.018;8.552;2024-03-17T01:04:25;101303.81;;;4.17;100.00
74633;BME280;63139;52.018;8.552;2024-03-17T01:06:51;101309.50;;;4.11;100.00
74633;BME280;63139;52.018;8.552;2024-03-17T01:09:18;101299.53;;;4.04;100.00
74633;BME280;63139;52.018;8.552;2024-03-17T01:11:45;101305.81;;;4.01;100.00
74633;BME280;63139;52.018;8.552;2024-03-17T01:14:12;101307.09;;;3.96;100.00
74633;BME280;63139;52.018;8.552;2024-03-17T01:16:40;101300.16;;;3.95;100.00
74633;BME280;63139;52.018;8.552;2024-03-17T01:19:07;101298.63;;;3.92;100.00
74633;BME280;63139;52.018;8.552;2024-03-17T01:21:33;101295.25;;;3.90;100.00
74633;BME280;63139;52.018;8.552;2024-03-17T01:23:59;101297.88;;;3.90;100.00
74633;BME280;63139;52.018;8.552;2024-03-17T01:26:25;101294.50;;;3.88;100.00
74633;BME280;63139;52.018;8.552;2024-03-17T01:28:52;101295.53;;;3.85;100.00
74633;BME280;63139;52.018;8.552;2024-03-17T01:31:18;101306.88;;;3.86;100.00
74633;BME280;63139;52.018;8.552;2024-03-17T01:33:46;101294.94;;;3.82;100.00
74633;BME280;63139;52.018;8.552;2024-03-17T01:36:13;101289.50;;;3.85;100.00
74633;BME280;63139;52.018;8.552;2024-03-17T01:38:39;101286.88;;;3.85;100.00
74633;BME280;63139;52.018;8.552;2024-03-17T01:41:05;101288.53;;;3.86;100.00
74633;BME280;63139;52.018;8.552;2024-03-17T01:43:32;101281.66;;;3.85;100.00
74633;BME280;63139;52.018;8.552;2024-03-17T01:45:58;101281.09;;;3.80;100.00
74633;BME280;63139;52.018;8.552;2024-03-17T01:48:26;101273.47;;;3.77;100.00
74633;BME280;63139;52.018;8.552;2024-03-17T01:50:55;101271.06;;;3.74;100.00
74633;BME280;63139;52.018;8.552;2024-03-17T01:53:23;101271.16;;;3.72;100.00
74633;BME280;63139;52.018;8.552;2024-03-17T01:55:52;101261.75;;;3.70;100.00
74633;BME280;63139;52.018;8.552;2024-03-17T01:58:23;101265.28;;;3.69;100.00
74633;BME280;63139;52.018;8.552;2024-03-17T02:00:50;101261.94;;;3.67;100.00
74633;BME280;63139;52.018;8.552;2024-03-17T02:03:18;101260.34;;;3.64;100.00
74633;BME280;63139;52.018;8.552;2024-03-17T02:05:44;101255.25;;;3.63;100.00
74633;BME280;63139;52.018;8.552;2024-03-17T02:08:16;101260.69;;;3.60;100.00
74633;BME280;63139;52.018;8.552;2024-03-17T02:10:44;101262.56;;;3.58;100.00
74633;BME280;63139;52.018;8.552;2024-03-17T02:13:09;101259.31;;;3.54;100.00
74633;BME280;63139;52.018;8.552;2024-03-17T02:15:37;101259.41;;;3.53;100.00
74633;BME280;63139;52.018;8.552;2024-03-17T02:18:03;101256.91;;;3.51;100.00
74633;BME280;63139;52.018;8.552;2024-03-17T02:20:30;101256.06;;;3.50;100.00
74633;BME280;63139;52.018;8.552;2024-03-17T02:23:12;101247.47;;;3.48;100.00
74633;BME280;63139;52.018;8.552;2024-03-17T02:25:39;101248.31;;;3.49;100.00
74633;BME280;63139;52.018;8.552;2024-03-17T02:28:05;101260.69;;;3.47;100.00
74633;BME280;63139;52.018;8.552;2024-03-17T02:30:32;101258.06;;;3.47;100.00
74633;BME280;63139;52.018;8.552;2024-03-17T02:32:59;101249.56;;;3.43;100.00
74633;BME280;63139;52.018;8.552;2024-03-17T02:35:25;101256.38;;;3.46;100.00
74633;BME280;63139;52.018;8.552;2024-03-17T02:37:52;101255.63;;;3.44;100.00
74633;BME280;63139;52.018;8.552;2024-03-17T02:40:20;101256.56;;;3.43;100.00
74633;BME280;63139;52.018;8.552;2024-03-17T02:42:46;101257.50;;;3.42;100.00
74633;BME280;63139;52.018;8.552;2024-03-17T02:45:13;101262.66;;;3.43;100.00
74633;BME280;63139;52.018;8.552;2024-03-17T02:47:41;101262.56;;;3.45;100.00
74633;BME280;63139;52.018;8.552;2024-03-17T02:50:08;101260.78;;;3.45;100.00
74633;BME280;63139;52.018;8.552;2024-03-17T02:52:34;101255.44;;;3.47;100.00
74633;BME280;63139;52.018;8.552;2024-03-17T02:55:01;101252.81;;;3.47;100.00
74633;BME280;63139;52.018;8.552;2024-03-17T02:57:29;101252.00;;;3.46;100.00
74633;BME280;63139;52.018;8.552;2024-03-17T02:59:57;101262.34;;;3.48;100.00
74633;BME280;63139;52.018;8.552;2024-03-17T03:02:24;101258.16;;;3.45;100.00
74633;BME280;63139;52.018;8.552;2024-03-17T03:04:51;101259.84;;;3.46;100.00
74633;BME280;63139;52.018;8.552;2024-03-17T03:07:18;101254.69;;;3.45;100.00
74633;BME280;63139;52.018;8.552;2024-03-17T03:09:44;101261.81;;;3.43;100.00
74633;BME280;63139;52.018;8.552;2024-03-17T03:12:11;101251.34;;;3.43;100.00
74633;BME280;63139;52.018;8.552;2024-03-17T03:14:40;101248.81;;;3.41;100.00
74633;BME280;63139;52.018;8.552;2024-03-17T03:17:07;101250.59;;;3.41;100.00
74633;BME280;63139;52.018;8.552;2024-03-17T03:19:34;101247.25;;;3.39;100.00
74633;BME280;63139;52.018;8.552;2024-03-17T03:22:01;101247.38;;;3.37;100.00
74633;BME280;63139;52.018;8.552;2024-03-17T03:24:27;101250.91;;;3.36;100.00
74633;BME280;63139;52.018;8.552;2024-03-17T03:26:54;101252.78;;;3.34;100.00
74633;BME280;63139;52.018;8.552;2024-03-17T03:29:21;101248.53;;;3.33;100.00
74633;BME280;63139;52.018;8.552;2024-03-17T03:31:49;101237.31;;;3.31;100.00
74633;BME280;63139;52.018;8.552;2024-03-17T03:34:16;101247.88;;;3.30;100.00
74633;BME280;63139;52.018;8.552;2024-03-17T03:36:43;101247.03;;;3.29;100.00
74633;BME280;63139;52.018;8.552;2024-03-17T03:39:10;101254.13;;;3.27;100.00
74633;BME280;63139;52.018;8.552;2024-03-17T03:41:39;101249.75;;;3.28;100.00
74633;BME280;63139;52.018;8.552;2024-03-17T03:44:08;101245.59;;;3.25;100.00
74633;BME280;63139;52.018;8.552;2024-03-17T03:46:36;101254.47;;;3.23;100.00
74633;BME280;63139;52.018;8.552;2024-03-17T03:49:04;101249.31;;;3.21;100.00
74633;BME280;63139;52.018;8.552;2024-03-17T03:51:31;101257.16;;;3.21;100.00
74633;BME280;63139;52.018;8.552;2024-03-17T03:53:58;101255.41;;;3.22;100.00
74633;BME280;63139;52.018;8.552;2024-03-17T03:56:24;101253.72;;;3.21;100.00
74633;BME280;63139;52.018;8.552;2024-03-17T03:58:51;101252.88;;;3.20;100.00
74633;BME280;63139;52.018;8.552;2024-03-17T04:01:18;101263.25;;;3.22;100.00
74633;BME280;63139;52.018;8.552;2024-03-17T04:03:48;101258.09;;;3.20;100.00
74633;BME280;63139;52.018;8.552;2024-03-17T04:06:16;101265.75;;;3.23;100.00
74633;BME280;63139;52.018;8.552;2024-03-17T04:08:43;101270.91;;;3.25;100.00
74633;BME280;63139;52.018;8.552;2024-03-17T04:11:10;101269.97;;;3.26;100.00
74633;BME280;63139;52.018;8.552;2024-03-17T04:13:38;101270.91;;;3.25;100.00
74633;BME280;63139;52.018;8.552;2024-03-17T04:16:06;101271.75;;;3.25;100.00
74633;BME280;63139;52.018;8.552;2024-03-17T04:18:33;101270.06;;;3.24;100.00
74633;BME280;63139;52.018;8.552;2024-03-17T04:21:02;101260.44;;;3.25;100.00
74633;BME280;63139;52.018;8.552;2024-03-17T04:23:31;101262.13;;;3.26;100.00
74633;BME280;63139;52.018;8.552;2024-03-17T04:25:59;101253.53;;;3.24;100.00
74633;BME280;63139;52.018;8.552;2024-03-17T04:28:27;101256.25;;;3.22;100.00
74633;BME280;63139;52.018;8.552;2024-03-17T04:31:02;101257.25;;;3.20;100.00
74633;BME280;63139;52.018;8.552;2024-03-17T04:33:32;101259.16;;;3.18;100.00
74633;BME280;63139;52.018;8.552;2024-03-17T04:35:59;101262.72;;;3.17;100.00
74633;BME280;63139;52.018;8.552;2024-03-17T04:38:27;101259.34;;;3.15;100.00
74633;BME280;63139;52.018;8.552;2024-03-17T04:40:56;101264.59;;;3.15;100.00
74633;BME280;63139;52.018;8.552;2024-03-17T04:43:31;101255.06;;;3.13;100.00
74633;BME280;63139;52.018;8.552;2024-03-17T04:46:02;101259.53;;;3.11;100.00
74633;BME280;63139;52.018;8.552;2024-03-17T04:48:30;101270.00;;;3.11;100.00
74633;BME280;63139;52.018;8.552;2024-03-17T04:50:58;101267.53;;;3.10;100.00
74633;BME280;63139;52.018;8.552;2024-03-17T04:53:25;101274.44;;;3.11;100.00
74633;BME280;63139;52.018;8.552;2024-03-17T04:56:01;101272.84;;;3.08;100.00
74633;BME280;63139;52.018;8.552;2024-03-17T04:58:30;101279.84;;;3.08;100.00
74633;BME280;63139;52.018;8.552;2024-03-17T05:00:57;101278.16;;;3.07;100.00
74633;BME280;63139;52.018;8.552;2024-03-17T05:03:24;101274.72;;;3.06;100.00
74633;BME280;63139;52.018;8.552;2024-03-17T05:05:58;101269.56;;;3.05;100.00
74633;BME280;63139;52.018;8.552;2024-03-17T05:08:27;101278.16;;;3.07;100.00
74633;BME280;63139;52.018;8.552;2024-03-17T05:10:56;101283.31;;;3.08;100.00
74633;BME280;63139;52.018;8.552;2024-03-17T05:13:25;101279.75;;;3.09;100.00
74633;BME280;63139;52.018;8.552;2024-03-17T05:15:52;101283.00;;;3.13;100.00
74633;BME280;63139;52.018;8.552;2024-03-17T05:18:19;101282.06;;;3.14;100.00
74633;BME280;63139;52.018;8.552;2024-03-17T05:20:56;101282.72;;;3.18;100.00
74633;BME280;63139;52.018;8.552;2024-03-17T05:23:25;101284.28;;;3.20;100.00
74633;BME280;63139;52.018;8.552;2024-03-17T05:25:52;101288.38;;;3.24;100.00
74633;BME280;63139;52.018;8.552;2024-03-17T05:28:20;101277.91;;;3.24;100.00
74633;BME280;63139;52.018;8.552;2024-03-17T05:30:48;101287.13;;;3.30;100.00
74633;BME280;63139;52.018;8.552;2024-03-17T05:33:16;101281.69;;;3.33;100.00
74633;BME280;63139;52.018;8.552;2024-03-17T05:35:48;101285.03;;;3.35;100.00
74633;BME280;63139;52.018;8.552;2024-03-17T05:38:16;101289.44;;;3.34;100.00
74633;BME280;63139;52.018;8.552;2024-03-17T05:40:43;101288.50;;;3.35;100.00
74633;BME280;63139;52.018;8.552;2024-03-17T05:43:10;101277.84;;;3.38;100.00
74633;BME280;63139;52.018;8.552;2024-03-17T05:45:37;101277.75;;;3.40;100.00
74633;BME280;63139;52.018;8.552;2024-03-17T05:48:06;101285.38;;;3.43;100.00
74633;BME280;63139;52.018;8.552;2024-03-17T05:50:35;101282.66;;;3.44;100.00
74633;BME280;63139;52.018;8.552;2024-03-17T05:53:01;101281.63;;;3.47;100.00
74633;BME280;63139;52.018;8.552;2024-03-17T05:55:28;101280.47;;;3.51;100.00
74633;BME280;63139;52.018;8.552;2024-03-17T05:57:55;101272.19;;;3.57;100.00
74633;BME280;63139;52.018;8.552;2024-03-17T06:00:22;101266.66;;;3.62;100.00
74633;BME280;63139;52.018;8.552;2024-03-17T06:02:50;101264.22;;;3.71;100.00
74633;BME280;63139;52.018;8.552;2024-03-17T06:05:18;101265.72;;;3.75;100.00
74633;BME280;63139;52.018;8.552;2024-03-17T06:07:45;101259.22;;;3.81;100.00
74633;BME280;63139;52.018;8.552;2024-03-17T06:10:12;101264.84;;;3.87;100.00
74633;BME280;63139;52.018;8.552;2024-03-17T06:12:40;101261.72;;;3.95;100.00
74633;BME280;63139;52.018;8.552;2024-03-17T06:15:08;101261.19;;;4.03;100.00
74633;BME280;63139;52.018;8.552;2024-03-17T06:17:35;101259.81;;;4.10;100.00
74633;BME280;63139;52.018;8.552;2024-03-17T06:20:02;101253.81;;;4.20;100.00
74633;BME280;63139;52.018;8.552;2024-03-17T06:22:30;101257.59;;;4.29;100.00
74633;BME280;63139;52.018;8.552;2024-03-17T06:24:57;101251.66;;;4.38;100.00
74633;BME280;63139;52.018;8.552;2024-03-17T06:27:24;101250.19;;;4.47;100.00
74633;BME280;63139;52.018;8.552;2024-03-17T06:29:51;101244.63;;;4.51;100.00
74633;BME280;63139;52.018;8.552;2024-03-17T06:32:18;101252.16;;;4.56;100.00
74633;BME280;63139;52.018;8.552;2024-03-17T06:34:45;101252.66;;;4.61;100.00
74633;BME280;63139;52.018;8.552;2024-03-17T06:37:12;101255.78;;;4.66;100.00
74633;BME280;63139;52.018;8.552;2024-03-17T06:39:40;101261.63;;;4.69;100.00
74633;BME280;63139;52.018;8.552;2024-03-17T06:42:07;101255.25;;;4.74;100.00
74633;BME280;63139;52.018;8.552;2024-03-17T06:44:34;101253.94;;;4.79;100.00
74633;BME280;63139;52.018;8.552;2024-03-17T06:47:01;101256.31;;;4.82;100.00
74633;BME280;63139;52.018;8.552;2024-03-17T06:49:28;101252.66;;;4.85;100.00
74633;BME280;63139;52.018;8.552;2024-03-17T06:51:56;101250.66;;;4.88;100.00
74633;BME280;63139;52.018;8.552;2024-03-17T06:54:23;101259.97;;;4.92;100.00
74633;BME280;63139;52.018;8.552;2024-03-17T06:56:51;101258.66;;;4.98;100.00
74633;BME280;63139;52.018;8.552;2024-03-17T06:59:19;101261.69;;;5.04;100.00
74633;BME280;63139;52.018;8.552;2024-03-17T07:01:46;101258.72;;;5.09;100.00
74633;BME280;63139;52.018;8.552;2024-03-17T07:04:13;101269.59;;;5.16;100.00
74633;BME280;63139;52.018;8.552;2024-03-17T07:06:40;101262.94;;;5.23;100.00
74633;BME280;63139;52.018;8.552;2024-03-17T07:09:07;101272.78;;;5.32;100.00
74633;BME280;63139;52.018;8.552;2024-03-17T07:11:34;101269.56;;;5.39;100.00
74633;BME280;63139;52.018;8.552;2024-03-17T07:14:02;101266.47;;;5.45;100.00
74633;BME280;63139;52.018;8.552;2024-03-17T07:16:30;101257.19;;;5.53;100.00
74633;BME280;63139;52.018;8.552;2024-03-17T07:18:57;101258.75;;;5.66;100.00
74633;BME280;63139;52.018;8.552;2024-03-17T07:21:25;101252.81;;;5.75;100.00
74633;BME280;63139;52.018;8.552;2024-03-17T07:23:51;101256.91;;;5.91;100.00
74633;BME280;63139;52.018;8.552;2024-03-17T07:26:18;101251.91;;;5.99;100.00
74633;BME280;63139;52.018;8.552;2024-03-17T07:28:45;101252.13;;;6.07;100.00
74633;BME280;63139;52.018;8.552;2024-03-17T07:31:13;101250.56;;;6.15;100.00
74633;BME280;63139;52.018;8.552;2024-03-17T07:33:40;101256.31;;;6.20;100.00
74633;BME280;63139;52.018;8.552;2024-03-17T07:36:07;101248.16;;;6.23;100.00
74633;BME280;63139;52.018;8.552;2024-03-17T07:38:36;101251.50;;;6.26;100.00
74633;BME280;63139;52.018;8.552;2024-03-17T07:41:04;101241.84;;;6.26;100.00
74633;BME280;63139;52.018;8.552;2024-03-17T07:43:35;101251.41;;;6.27;100.00
74633;BME280;63139;52.018;8.552;2024-03-17T07:46:04;101256.53;;;6.29;100.00
74633;BME280;63139;52.018;8.552;2024-03-17T07:48:34;101246.72;;;6.31;100.00
74633;BME280;63139;52.018;8.552;2024-03-17T07:51:03;101241.22;;;6.34;100.00
74633;BME280;63139;52.018;8.552;2024-03-17T07:53:30;101236.56;;;6.37;100.00
74633;BME280;63139;52.018;8.552;2024-03-17T07:55:58;101240.63;;;6.41;100.00
74633;BME280;63139;52.018;8.552;2024-03-17T07:58:26;101246.34;;;6.46;100.00
74633;BME280;63139;52.018;8.552;2024-03-17T08:00:57;101239.16;;;6.48;100.00
74633;BME280;63139;52.018;8.552;2024-03-17T08:03:25;101245.84;;;6.52;100.00
74633;BME280;63139;52.018;8.552;2024-03-17T08:05:53;101235.81;;;6.57;100.00
74633;BME280;63139;52.018;8.552;2024-03-17T08:08:20;101241.41;;;6.64;100.00
74633;BME280;63139;52.018;8.552;2024-03-17T08:10:48;101238.28;;;6.70;100.00
74633;BME280;63139;52.018;8.552;2024-03-17T08:13:15;101231.81;;;6.74;100.00
74633;BME280;63139;52.018;8.552;2024-03-17T08:15:43;101234.91;;;6.79;100.00
74633;BME280;63139;52.018;8.552;2024-03-17T08:18:11;101234.28;;;6.87;100.00
74633;BME280;63139;52.018;8.552;2024-03-17T08:20:38;101232.69;;;6.95;100.00
74633;BME280;63139;52.018;8.552;2024-03-17T08:23:07;101230.25;;;7.04;100.00
74633;BME280;63139;52.018;8.552;2024-03-17T08:25:34;101230.31;;;7.13;100.00
74633;BME280;63139;52.018;8.552;2024-03-17T08:28:02;101243.56;;;7.23;100.00
74633;BME280;63139;52.018;8.552;2024-03-17T08:30:29;101244.59;;;7.31;100.00
74633;BME280;63139;52.018;8.552;2024-03-17T08:32:56;101231.63;;;7.39;100.00
74633;BME280;63139;52.018;8.552;2024-03-17T08:35:23;101230.81;;;7.49;100.00
74633;BME280;63139;52.018;8.552;2024-03-17T08:37:51;101233.41;;;7.60;100.00
74633;BME280;63139;52.018;8.552;2024-03-17T08:40:21;101233.59;;;7.68;100.00
74633;BME280;63139;52.018;8.552;2024-03-17T08:42:48;101236.28;;;7.77;100.00
74633;BME280;63139;52.018;8.552;2024-03-17T08:45:15;101233.78;;;7.86;100.00
74633;BME280;63139;52.018;8.552;2024-03-17T08:47:42;101234.81;;;7.94;100.00
74633;BME280;63139;52.018;8.552;2024-03-17T08:50:09;101235.81;;;8.03;100.00
74633;BME280;63139;52.018;8.552;2024-03-17T08:52:38;101225.44;;;8.11;100.00
74633;BME280;63139;52.018;8.552;2024-03-17T08:55:07;101223.69;;;8.21;100.00
74633;BME280;63139;52.018;8.552;2024-03-17T08:57:40;101226.47;;;8.29;100.00
74633;BME280;63139;52.018;8.552;2024-03-17T09:00:09;101220.69;;;8.35;100.00
74633;BME280;63139;52.018;8.552;2024-03-17T09:02:36;101229.44;;;8.45;100.00
74633;BME280;63139;52.018;8.552;2024-03-17T09:05:03;101223.91;;;8.48;100.00
74633;BME280;63139;52.018;8.552;2024-03-17T09:07:30;101229.75;;;8.52;100.00
74633;BME280;63139;52.018;8.552;2024-03-17T09:09:57;101224.78;;;8.59;100.00
74633;BME280;63139;52.018;8.552;2024-03-17T09:12:25;101232.84;;;8.67;100.00
74633;BME280;63139;52.018;8.552;2024-03-17T09:14:54;101236.88;;;8.71;100.00
74633;BME280;63139;52.018;8.552;2024-03-17T09:17:21;101227.41;;;8.78;100.00
74633;BME280;63139;52.018;8.552;2024-03-17T09:19:48;101227.84;;;8.83;100.00
74633;BME280;63139;52.018;8.552;2024-03-17T09:22:15;101224.22;;;8.93;100.00
74633;BME280;63139;52.018;8.552;2024-03-17T09:24:42;101226.72;;;9.05;100.00
74633;BME280;63139;52.018;8.552;2024-03-17T09:27:09;101230.34;;;9.13;100.00
74633;BME280;63139;52.018;8.552;2024-03-17T09:29:36;101227.81;;;9.21;100.00
74633;BME280;63139;52.018;8.552;2024-03-17T09:32:05;101226.84;;;9.22;100.00
74633;BME280;63139;52.018;8.552;2024-03-17T09:34:32;101227.81;;;9.21;100.00
74633;BME280;63139;52.018;8.552;2024-03-17T09:36:58;101212.94;;;9.20;100.00
74633;BME280;63139;52.018;8.552;2024-03-17T09:39:27;101223.66;;;9.28;100.00
74633;BME280;63139;52.018;8.552;2024-03-17T09:41:53;101221.84;;;9.29;91.86
74633;BME280;63139;52.018;8.552;2024-03-17T09:44:20;101227.09;;;9.48;96.44
74633;BME280;63139;52.018;8.552;2024-03-17T09:46:47;101214.81;;;9.57;97.51
74633;BME280;63139;52.018;8.552;2024-03-17T09:49:15;101215.38;;;9.60;93.87
74633;BME280;63139;52.018;8.552;2024-03-17T09:51:43;101219.56;;;9.63;95.82
74633;BME280;63139;52.018;8.552;2024-03-17T09:54:17;101217.00;;;9.71;95.79
74633;BME280;63139;52.018;8.552;2024-03-17T09:56:44;101210.47;;;9.75;96.17
74633;BME280;63139;52.018;8.552;2024-03-17T09:59:11;101221.44;;;9.80;95.50
74633;BME280;63139;52.018;8.552;2024-03-17T10:01:39;101221.84;;;9.85;93.46
74633;BME280;63139;52.018;8.552;2024-03-17T10:04:08;101214.28;;;10.00;91.97
74633;BME280;63139;52.018;8.552;2024-03-17T10:06:44;101208.22;;;10.17;88.06
74633;BME280;63139;52.018;8.552;2024-03-17T10:09:15;101212.06;;;10.23;87.44
74633;BME280;63139;52.018;8.552;2024-03-17T10:11:46;101211.03;;;10.33;87.87
74633;BME280;63139;52.018;8.552;2024-03-17T10:14:16;101213.31;;;10.46;87.45
74633;BME280;63139;52.018;8.552;2024-03-17T10:16:44;101203.97;;;10.52;88.57
74633;BME280;63139;52.018;8.552;2024-03-17T10:19:12;101203.97;;;10.69;88.08
74633;BME280;63139;52.018;8.552;2024-03-17T10:21:42;101202.78;;;10.81;85.89
74633;BME280;63139;52.018;8.552;2024-03-17T10:24:10;101197.38;;;10.91;84.53
74633;BME280;63139;52.018;8.552;2024-03-17T10:26:42;101200.44;;;10.96;83.14
74633;BME280;63139;52.018;8.552;2024-03-17T10:29:22;101184.81;;;11.11;81.40
74633;BME280;63139;52.018;8.552;2024-03-17T10:31:50;101195.44;;;11.19;80.70
74633;BME280;63139;52.018;8.552;2024-03-17T10:34:18;101173.66;;;11.25;79.64
74633;BME280;63139;52.018;8.552;2024-03-17T10:36:46;101167.78;;;11.39;81.35
74633;BME280;63139;52.018;8.552;2024-03-17T10:39:23;101167.84;;;11.47;77.90
74633;BME280;63139;52.018;8.552;2024-03-17T10:41:56;101165.03;;;11.57;79.35
74633;BME280;63139;52.018;8.552;2024-03-17T10:44:23;101172.84;;;11.58;78.20
74633;BME280;63139;52.018;8.552;2024-03-17T10:46:52;101174.66;;;11.58;76.61
74633;BME280;63139;52.018;8.552;2024-03-17T10:49:21;101166.88;;;11.56;76.00
74633;BME280;63139;52.018;8.552;2024-03-17T10:51:53;101169.56;;;11.64;75.23
74633;BME280;63139;52.018;8.552;2024-03-17T10:54:25;101178.88;;;11.68;75.18
74633;BME280;63139;52.018;8.552;2024-03-17T10:56:55;101177.16;;;11.77;75.15
74633;BME280;63139;52.018;8.552;2024-03-17T10:59:32;101163.09;;;11.85;74.18
74633;BME280;63139;52.018;8.552;2024-03-17T11:02:16;101172.56;;;11.95;73.75
74633;BME280;63139;52.018;8.552;2024-03-17T11:04:44;101168.13;;;12.04;73.46
74633;BME280;63139;52.018;8.552;2024-03-17T11:07:16;101177.78;;;12.13;72.97
74633;BME280;63139;52.018;8.552;2024-03-17T11:09:45;101184.56;;;12.16;72.85
74633;BME280;63139;52.018;8.552;2024-03-17T11:12:43;101179.09;;;12.17;71.21
74633;BME280;63139;52.018;8.552;2024-03-17T11:18:31;101174.78;;;12.16;69.43
74633;BME280;63139;52.018;8.552;2024-03-17T11:21:01;101177.78;;;12.13;72.92
74633;BME280;63139;52.018;8.552;2024-03-17T11:23:35;101169.47;;;12.16;72.18
74633;BME280;63139;52.018;8.552;2024-03-17T11:26:03;101162.53;;;12.15;71.62
74633;BME280;63139;52.018;8.552;2024-03-17T11:28:48;101165.53;;;12.20;69.81
74633;BME280;63139;52.018;8.552;2024-03-17T11:31:48;101156.72;;;12.20;68.53
74633;BME280;63139;52.018;8.552;2024-03-17T11:34:29;101165.72;;;12.27;69.78
74633;BME280;63139;52.018;8.552;2024-03-17T11:36:56;101160.09;;;12.30;70.56
74633;BME280;63139;52.018;8.552;2024-03-17T11:39:48;101153.78;;;12.39;68.01
74633;BME280;63139;52.018;8.552;2024-03-17T11:42:15;101157.44;;;12.46;70.82
74633;BME280;63139;52.018;8.552;2024-03-17T11:44:43;101162.44;;;12.49;68.73
74633;BME280;63139;52.018;8.552;2024-03-17T11:47:11;101156.81;;;12.52;68.54
74633;BME280;63139;52.018;8.552;2024-03-17T11:49:38;101156.31;;;12.57;68.94
74633;BME280;63139;52.018;8.552;2024-03-17T11:52:08;101156.81;;;12.68;67.02
74633;BME280;63139;52.018;8.552;2024-03-17T11:54:37;101152.66;;;12.66;66.51
74633;BME280;63139;52.018;8.552;2024-03-17T11:57:07;101148.81;;;12.68;65.20
74633;BME280;63139;52.018;8.552;2024-03-17T11:59:34;101143.69;;;12.75;67.36
74633;BME280;63139;52.018;8.552;2024-03-17T12:02:06;101145.03;;;12.71;65.46
74633;BME280;63139;52.018;8.552;2024-03-17T12:04:39;101136.22;;;12.70;64.30
74633;BME280;63139;52.018;8.552;2024-03-17T12:07:12;101129.75;;;12.73;63.79
74633;BME280;63139;52.018;8.552;2024-03-17T12:09:40;101130.75;;;12.72;65.33
74633;BME280;63139;52.018;8.552;2024-03-17T12:12:10;101120.59;;;12.75;64.67
74633;BME280;63139;52.018;8.552;2024-03-17T12:14:37;101117.94;;;12.75;65.78
74633;BME280;63139;52.018;8.552;2024-03-17T12:17:06;101125.28;;;12.73;65.51
74633;BME280;63139;52.018;8.552;2024-03-17T12:19:33;101128.91;;;12.72;65.74
74633;BME280;63139;52.018;8.552;2024-03-17T12:22:04;101125.75;;;12.77;65.44
74633;BME280;63139;52.018;8.552;2024-03-17T12:24:32;101123.59;;;12.80;65.39
74633;BME280;63139;52.018;8.552;2024-03-17T12:27:00;101130.75;;;12.80;64.95
74633;BME280;63139;52.018;8.552;2024-03-17T12:29:31;101121.94;;;12.88;64.51
74633;BME280;63139;52.018;8.552;2024-03-17T12:32:02;101120.94;;;12.89;64.82
74633;BME280;63139;52.018;8.552;2024-03-17T12:34:30;101119.44;;;12.86;61.69
74633;BME280;63139;52.018;8.552;2024-03-17T12:36:58;101127.75;;;12.83;59.50
74633;BME280;63139;52.018;8.552;2024-03-17T12:39:25;101117.09;;;12.91;55.65
74633;BME280;63139;52.018;8.552;2024-03-17T12:42:03;101109.97;;;13.00;57.96
74633;BME280;63139;52.018;8.552;2024-03-17T12:44:31;101113.97;;;13.04;54.09
74633;BME280;63139;52.018;8.552;2024-03-17T12:46:59;101112.44;;;13.09;58.56
74633;BME280;63139;52.018;8.552;2024-03-17T12:49:26;101119.63;;;13.17;58.90
74633;BME280;63139;52.018;8.552;2024-03-17T12:51:54;101121.25;;;13.26;58.47
74633;BME280;63139;52.018;8.552;2024-03-17T12:54:22;101121.72;;;13.38;58.36
74633;BME280;63139;52.018;8.552;2024-03-17T12:56:51;101116.38;;;13.46;58.17
74633;BME280;63139;52.018;8.552;2024-03-17T12:59:41;101116.53;;;13.52;53.58